createdAt,value
2022-11-22T00:01:30.987Z,6.53
2022-11-22T00:04:34.088Z,6.52
2022-11-22T00:07:37.952Z,6.55
2022-11-22T00:10:39.758Z,6.60
2022-11-22T00:13:41.445Z,6.69
2022-11-22T00:16:43.104Z,6.73
2022-11-22T00:19:46.087Z,6.78
2022-11-22T00:22:47.766Z,6.86
2022-11-22T00:25:49.444Z,6.81
2022-11-22T00:28:51.223Z,6.83
2022-11-22T00:31:53.067Z,6.81
2022-11-22T00:34:56.064Z,6.90
2022-11-22T00:37:57.816Z,7.01
2022-11-22T00:40:59.474Z,7.07
2022-11-22T00:44:01.269Z,7.05
2022-11-22T00:47:03.004Z,6.97
2022-11-22T00:50:06.753Z,6.95
2022-11-22T00:53:08.643Z,7.06
2022-11-22T00:56:10.346Z,7.15
2022-11-22T00:59:11.977Z,7.15
2022-11-22T01:02:13.546Z,7.15
2022-11-22T01:05:18.019Z,7.17
2022-11-22T01:08:19.727Z,7.23
2022-11-22T01:11:21.972Z,7.24
2022-11-22T01:14:23.582Z,7.27
2022-11-22T01:17:25.232Z,7.29
2022-11-22T01:20:28.199Z,7.30
2022-11-22T01:23:30.751Z,7.26
2022-11-22T01:26:33.164Z,7.21
2022-11-22T01:29:34.828Z,7.21
2022-11-22T01:32:36.437Z,7.22
2022-11-22T01:35:39.543Z,7.20
2022-11-22T01:38:41.258Z,7.16
2022-11-22T01:41:42.847Z,7.16
2022-11-22T01:44:44.564Z,7.18
2022-11-22T01:47:46.402Z,7.22
2022-11-22T01:50:55.940Z,7.26
2022-11-22T01:54:02.588Z,7.29
2022-11-22T01:57:08.110Z,7.31
2022-11-22T02:00:12.877Z,7.29
2022-11-22T02:03:22.177Z,7.22
2022-11-22T02:06:31.295Z,7.21
2022-11-22T02:09:33.426Z,7.25
2022-11-22T02:12:36.275Z,7.20
2022-11-22T02:15:37.874Z,7.21
2022-11-22T02:18:40.079Z,7.24
2022-11-22T02:21:46.572Z,7.24
2022-11-22T02:24:54.763Z,7.22
2022-11-22T02:27:57.961Z,7.23
2022-11-22T02:30:59.646Z,7.26
2022-11-22T02:34:01.825Z,7.25
2022-11-22T02:37:03.669Z,7.26
2022-11-22T02:40:08.919Z,7.22
2022-11-22T02:43:15.423Z,7.23
2022-11-22T02:46:20.623Z,7.22
2022-11-22T02:49:24.528Z,7.23
2022-11-22T02:52:26.171Z,7.20
2022-11-22T02:55:27.892Z,7.18
2022-11-22T02:58:30.794Z,7.22
2022-11-22T03:01:32.596Z,7.23
2022-11-22T03:04:34.219Z,7.24
2022-11-22T03:07:35.919Z,7.22
2022-11-22T03:10:37.631Z,7.24
2022-11-22T03:13:40.805Z,7.22
2022-11-22T03:16:42.755Z,7.25
2022-11-22T03:19:44.377Z,7.25
2022-11-22T03:22:46.115Z,7.26
2022-11-22T03:25:47.829Z,7.24
2022-11-22T03:28:50.797Z,7.26
2022-11-22T03:31:52.454Z,7.32
2022-11-22T03:34:54.135Z,7.36
2022-11-22T03:37:56.871Z,7.34
2022-11-22T03:40:58.544Z,7.37
2022-11-22T03:44:01.520Z,7.26
2022-11-22T03:47:03.159Z,7.21
2022-11-22T03:50:05.924Z,7.22
2022-11-22T03:53:07.824Z,7.30
2022-11-22T03:56:09.894Z,7.30
2022-11-22T03:59:13.297Z,7.31
2022-11-22T04:02:15.032Z,7.30
2022-11-22T04:05:16.703Z,7.22
2022-11-22T04:08:18.569Z,7.21
2022-11-22T04:11:20.158Z,7.22
2022-11-22T04:14:41.961Z,7.17
2022-11-22T04:17:45.550Z,7.12
2022-11-22T04:21:06.011Z,7.09
2022-11-22T04:24:28.070Z,7.05
2022-11-22T04:27:29.684Z,7.07
2022-11-22T04:30:51.383Z,7.04
2022-11-22T04:33:53.053Z,7.07
2022-11-22T04:36:54.665Z,7.14
2022-11-22T04:39:56.327Z,7.15
2022-11-22T04:43:16.499Z,7.15
2022-11-22T04:46:19.438Z,7.18
2022-11-22T04:49:21.152Z,7.24
2022-11-22T04:52:41.543Z,7.21
2022-11-22T04:55:45.017Z,7.20
2022-11-22T04:58:46.572Z,7.22
2022-11-22T05:01:49.543Z,7.20
2022-11-22T05:04:51.073Z,7.20
2022-11-22T05:07:52.804Z,7.09
2022-11-22T05:10:57.874Z,7.06
2022-11-22T05:13:59.448Z,7.02
2022-11-22T05:17:02.412Z,6.95
2022-11-22T05:20:04.744Z,6.93
2022-11-22T05:23:25.155Z,6.87
2022-11-22T05:26:28.382Z,6.85
2022-11-22T05:29:30.208Z,6.76
2022-11-22T05:32:33.954Z,6.72
2022-11-22T05:35:35.728Z,6.67
2022-11-22T05:38:38.273Z,6.56
2022-11-22T05:41:55.639Z,6.56
2022-11-22T05:44:57.149Z,6.54
2022-11-22T05:48:00.383Z,6.54
2022-11-22T05:51:04.590Z,6.49
2022-11-22T05:54:06.230Z,6.56
2022-11-22T05:57:07.896Z,6.63
2022-11-22T06:00:10.506Z,6.66
2022-11-22T06:03:14.827Z,6.74
2022-11-22T06:06:16.686Z,6.74
2022-11-22T06:09:18.499Z,6.74
2022-11-22T06:12:20.159Z,6.79
2022-11-22T06:15:22.072Z,6.79
2022-11-22T06:18:25.047Z,6.81
2022-11-22T06:21:26.836Z,6.86
2022-11-22T06:24:28.468Z,6.90
2022-11-22T06:27:30.121Z,6.92
2022-11-22T06:30:31.788Z,6.95
2022-11-22T06:33:35.217Z,6.96
2022-11-22T06:36:37.951Z,6.97
2022-11-22T06:39:39.597Z,6.90
2022-11-22T06:42:41.282Z,6.99
2022-11-22T06:45:42.918Z,6.99
2022-11-22T06:48:46.390Z,6.91
2022-11-22T06:51:48.093Z,6.81
2022-11-22T06:54:49.803Z,6.72
2022-11-22T06:57:54.331Z,6.68
2022-11-22T07:01:00.251Z,6.83
2022-11-22T07:04:03.698Z,6.93
2022-11-22T07:07:05.436Z,6.94
2022-11-22T07:10:07.778Z,6.95
2022-11-22T07:13:09.531Z,6.97
2022-11-22T07:16:13.151Z,6.90
2022-11-22T07:19:16.247Z,6.88
2022-11-22T07:22:17.902Z,6.94
2022-11-22T07:25:19.608Z,6.92
2022-11-22T07:28:21.366Z,6.92
2022-11-22T07:31:23.210Z,6.94
2022-11-22T07:34:26.186Z,6.89
2022-11-22T07:37:27.837Z,6.91
2022-11-22T07:40:29.668Z,6.93
2022-11-22T07:43:31.723Z,6.93
2022-11-22T07:46:33.430Z,6.92
2022-11-22T07:49:36.469Z,6.98
2022-11-22T07:52:38.363Z,6.93
2022-11-22T07:55:40.025Z,6.90
2022-11-22T07:58:41.745Z,6.90
2022-11-22T08:01:43.974Z,6.97
2022-11-22T08:04:47.005Z,6.99
2022-11-22T08:07:49.888Z,6.99
2022-11-22T08:10:51.651Z,6.99
2022-11-22T08:13:53.251Z,7.00
2022-11-22T08:16:55.135Z,7.06
2022-11-22T08:19:58.138Z,7.09
2022-11-22T08:22:59.881Z,7.10
2022-11-22T08:26:01.963Z,7.10
2022-11-22T08:29:04.710Z,7.14
2022-11-22T08:32:06.586Z,7.20
2022-11-22T08:35:09.783Z,7.17
2022-11-22T08:38:11.389Z,7.22
2022-11-22T08:41:13.455Z,7.28
2022-11-22T08:44:15.088Z,7.24
2022-11-22T08:47:16.931Z,7.28
2022-11-22T08:50:20.054Z,7.28
2022-11-22T08:53:21.816Z,7.36
2022-11-22T08:56:23.409Z,7.40
2022-11-22T08:59:25.132Z,7.48
2022-11-22T09:02:26.851Z,7.57
2022-11-22T09:05:30.709Z,7.57
2022-11-22T09:08:36.060Z,7.61
2022-11-22T09:11:39.535Z,7.67
2022-11-22T09:14:41.286Z,7.73
2022-11-22T09:17:43.804Z,7.75
2022-11-22T09:20:46.909Z,7.75
2022-11-22T09:23:50.000Z,7.75
2022-11-22T09:26:51.640Z,7.73
2022-11-22T09:29:53.388Z,7.74
2022-11-22T09:32:55.061Z,7.75
2022-11-22T09:36:02.293Z,7.74
2022-11-22T09:39:04.077Z,7.82
2022-11-22T09:42:20.481Z,7.88
2022-11-22T09:45:44.074Z,7.91
2022-11-22T09:49:07.745Z,7.93
2022-11-22T09:52:17.276Z,8.07
2022-11-22T09:55:24.958Z,8.14
2022-11-22T09:58:30.907Z,7.92
2022-11-22T10:01:39.345Z,8.15
2022-11-22T10:04:45.327Z,8.17
2022-11-22T10:07:54.751Z,8.01
2022-11-22T10:10:58.799Z,8.13
2022-11-22T10:14:04.736Z,8.11
2022-11-22T10:17:20.576Z,8.13
2022-11-22T10:20:24.056Z,7.99
2022-11-22T10:23:27.599Z,8.09
2022-11-22T10:26:35.099Z,8.21
2022-11-22T10:29:42.571Z,8.17
2022-11-22T10:32:55.791Z,8.16
2022-11-22T10:36:20.866Z,8.26
2022-11-22T10:39:45.750Z,8.22
2022-11-22T10:43:11.933Z,8.22
2022-11-22T10:46:22.005Z,8.31
2022-11-22T10:49:38.128Z,8.28
2022-11-22T10:52:49.091Z,8.29
2022-11-22T10:55:59.368Z,8.29
2022-11-22T10:59:29.399Z,8.28
2022-11-22T11:02:58.478Z,8.28
2022-11-22T11:06:22.572Z,8.32
2022-11-22T11:13:01.766Z,8.41
2022-11-22T11:16:08.609Z,8.48
2022-11-22T11:19:18.081Z,8.49
2022-11-22T11:22:50.341Z,8.60
2022-11-22T11:25:46.817Z,8.58
2022-11-22T11:28:50.339Z,8.57
2022-11-22T11:32:06.181Z,8.68
2022-11-22T11:35:08.773Z,8.68
2022-11-22T11:38:26.675Z,8.81
2022-11-22T11:41:30.262Z,8.84
2022-11-22T11:44:36.274Z,8.88
2022-11-22T11:47:37.946Z,8.74
2022-11-22T11:50:39.760Z,8.82
2022-11-22T11:53:50.432Z,8.92
2022-11-22T11:56:55.515Z,8.91
2022-11-22T12:00:00.827Z,9.00
2022-11-22T12:03:06.820Z,8.88
2022-11-22T12:06:13.040Z,9.06
2022-11-22T12:09:29.154Z,9.04
2022-11-22T12:12:40.454Z,8.99
2022-11-22T12:15:54.444Z,9.03
2022-11-22T12:19:04.759Z,9.17
2022-11-22T12:22:29.448Z,9.02
2022-11-22T12:25:40.307Z,9.06
2022-11-22T12:28:43.269Z,9.14
2022-11-22T12:31:53.260Z,9.12
2022-11-22T12:34:58.511Z,9.21
2022-11-22T12:38:09.156Z,9.30
2022-11-22T12:41:13.707Z,9.15
2022-11-22T12:44:18.276Z,9.19
2022-11-22T12:47:24.403Z,9.16
2022-11-22T12:50:30.487Z,9.13
2022-11-22T12:53:35.968Z,9.20
2022-11-22T12:56:49.042Z,9.23
2022-11-22T12:59:58.465Z,9.26
2022-11-22T13:03:05.444Z,9.23
2022-11-22T13:06:10.685Z,9.31
2022-11-22T13:09:18.743Z,9.32
2022-11-22T13:12:26.800Z,9.28
2022-11-22T13:15:31.934Z,9.27
2022-11-22T13:18:39.651Z,9.20
2022-11-22T13:21:52.215Z,9.24
2022-11-22T13:25:09.064Z,9.13
2022-11-22T13:28:14.173Z,9.14
2022-11-22T13:31:19.091Z,9.09
2022-11-22T13:34:25.493Z,9.07
2022-11-22T13:37:28.712Z,9.08
2022-11-22T13:40:34.886Z,9.05
2022-11-22T13:43:52.221Z,8.98
2022-11-22T13:46:57.080Z,9.00
2022-11-22T13:50:00.153Z,9.03
2022-11-22T13:53:21.287Z,8.93
2022-11-22T13:56:48.296Z,8.91
2022-11-22T14:00:39.834Z,8.92
2022-11-22T14:03:42.977Z,8.88
2022-11-22T14:06:49.177Z,8.86
2022-11-22T14:09:58.044Z,8.82
2022-11-22T14:13:30.268Z,8.82
2022-11-22T14:16:47.499Z,8.80
2022-11-22T14:20:01.208Z,8.82
2022-11-22T14:23:15.552Z,8.80
2022-11-22T14:26:25.931Z,8.82
2022-11-22T14:30:03.565Z,8.80
2022-11-22T14:33:13.542Z,8.73
2022-11-22T14:36:19.170Z,8.77
2022-11-22T14:39:58.174Z,8.73
2022-11-22T14:43:05.413Z,8.74
2022-11-22T14:46:37.293Z,8.74
2022-11-22T14:49:42.316Z,8.73
2022-11-22T14:52:46.267Z,8.70
2022-11-22T14:55:49.738Z,8.73
2022-11-22T14:59:01.521Z,8.73
2022-11-22T15:02:38.818Z,8.58
2022-11-22T15:09:13.291Z,8.52
2022-11-22T15:09:53.276Z,8.49
2022-11-22T15:13:29.260Z,8.47
2022-11-22T15:57:52.619Z,8.01
2022-11-22T16:01:01.472Z,7.99
2022-11-22T16:04:23.390Z,7.94
2022-11-22T16:07:31.358Z,7.93
2022-11-22T16:10:37.583Z,7.93
2022-11-22T16:13:40.003Z,7.93
2022-11-22T16:16:41.710Z,7.91
2022-11-22T16:19:43.343Z,7.89
2022-11-22T16:23:02.348Z,7.87
2022-11-22T16:26:20.319Z,7.72
2022-11-22T16:29:26.295Z,7.70
2022-11-22T16:32:28.458Z,7.67
2022-11-22T16:35:30.411Z,7.74
2022-11-22T16:38:34.491Z,7.71
2022-11-22T16:41:36.306Z,7.66
2022-11-22T16:44:38.971Z,7.66
2022-11-22T16:47:40.766Z,7.65
2022-11-22T16:50:43.027Z,7.66
2022-11-22T16:53:47.975Z,7.64
2022-11-22T16:56:49.848Z,7.54
2022-11-22T16:59:51.639Z,7.50
2022-11-22T17:02:53.276Z,7.46
2022-11-22T17:05:55.355Z,7.42
2022-11-22T17:08:59.890Z,7.41
2022-11-22T17:12:02.154Z,7.38
2022-11-22T17:15:04.289Z,7.39
2022-11-22T17:18:05.930Z,7.38
2022-11-22T17:21:16.219Z,7.36
2022-11-22T17:24:21.206Z,7.24
2022-11-22T17:27:22.745Z,7.22
2022-11-22T17:30:24.450Z,7.23
2022-11-22T17:33:26.179Z,7.16
2022-11-22T17:36:30.125Z,7.12
2022-11-22T17:39:33.476Z,7.14
2022-11-22T17:42:40.742Z,7.07
2022-11-22T17:45:43.842Z,7.07
2022-11-22T17:48:51.025Z,7.08
2022-11-22T17:51:52.768Z,7.13
2022-11-22T17:54:58.309Z,7.14
2022-11-22T17:58:02.374Z,7.18
2022-11-22T18:01:05.491Z,7.17
2022-11-22T18:04:07.082Z,7.19
2022-11-22T18:07:08.806Z,7.17
2022-11-22T18:10:12.302Z,7.21
2022-11-22T18:13:21.311Z,7.23
2022-11-22T18:16:28.304Z,7.18
2022-11-22T18:19:30.594Z,7.23
2022-11-22T18:22:32.501Z,7.20
2022-11-22T18:25:37.088Z,7.18
2022-11-22T18:28:39.512Z,7.15
2022-11-22T18:31:51.802Z,7.10
2022-11-22T18:34:54.125Z,7.03
2022-11-22T18:37:55.787Z,6.98
2022-11-22T18:41:00.378Z,7.00
2022-11-22T18:44:06.936Z,7.09
2022-11-22T18:47:10.307Z,7.06
2022-11-22T18:50:12.919Z,7.08
2022-11-22T18:53:14.559Z,7.07
2022-11-22T18:56:17.557Z,7.03
2022-11-22T18:59:19.260Z,6.95
2022-11-22T19:02:25.669Z,6.92
2022-11-22T19:05:27.410Z,6.92
2022-11-22T19:08:29.026Z,6.89
2022-11-22T19:11:32.197Z,6.73
2022-11-22T19:14:34.637Z,6.73
2022-11-22T19:17:38.186Z,6.80
2022-11-22T19:20:54.767Z,6.84
2022-11-22T19:23:57.312Z,6.81
2022-11-22T19:27:00.386Z,6.79
2022-11-22T19:30:02.324Z,6.82
2022-11-22T19:33:04.170Z,6.80
2022-11-22T19:36:07.853Z,6.76
2022-11-22T19:39:13.183Z,6.84
2022-11-22T19:42:17.696Z,6.86
2022-11-22T19:45:19.427Z,6.81
2022-11-22T19:48:21.165Z,6.88
2022-11-22T19:51:23.908Z,6.83
2022-11-22T19:54:25.801Z,6.82
2022-11-22T19:57:28.818Z,6.85
2022-11-22T20:00:30.856Z,6.86
2022-11-22T20:03:33.956Z,6.75
2022-11-22T20:06:36.342Z,6.78
2022-11-22T20:09:38.420Z,6.67
2022-11-22T20:12:43.116Z,6.70
2022-11-22T20:15:44.732Z,6.63
2022-11-22T20:18:46.788Z,6.70
2022-11-22T20:21:49.464Z,6.70
2022-11-22T20:24:51.288Z,6.65
2022-11-22T20:27:54.455Z,6.75
2022-11-22T20:31:04.799Z,6.71
2022-11-22T20:34:06.730Z,6.64
2022-11-22T20:37:08.459Z,6.71
2022-11-22T20:40:10.519Z,6.63
2022-11-22T20:43:13.449Z,6.75
2022-11-22T20:46:17.199Z,6.78
2022-11-22T20:49:18.918Z,6.81
2022-11-22T20:52:20.601Z,6.81
2022-11-22T20:55:22.253Z,6.79
2022-11-22T20:58:26.309Z,6.86
2022-11-22T21:01:31.131Z,7.01
2022-11-22T21:04:33.219Z,7.01
2022-11-22T21:07:35.127Z,6.90
2022-11-22T21:10:36.902Z,6.88
2022-11-22T21:13:40.808Z,6.86
2022-11-22T21:16:43.216Z,6.90
2022-11-22T21:19:44.971Z,6.83
2022-11-22T21:22:46.649Z,6.83
2022-11-22T21:25:50.365Z,6.82
2022-11-22T21:28:53.824Z,6.83
2022-11-22T21:31:55.462Z,6.75
2022-11-22T21:34:57.124Z,6.71
2022-11-22T21:37:58.810Z,6.72
2022-11-22T21:41:24.390Z,6.76
2022-11-22T21:44:25.017Z,6.74
2022-11-22T21:47:26.655Z,6.73
2022-11-22T21:50:28.295Z,6.64
2022-11-22T21:53:30.526Z,6.68
2022-11-22T21:56:32.458Z,6.69
2022-11-22T21:59:35.764Z,6.71
2022-11-22T22:02:37.497Z,6.68
2022-11-22T22:05:39.503Z,6.66
2022-11-22T22:08:41.260Z,6.72
2022-11-22T22:11:47.468Z,6.68
2022-11-22T22:14:50.456Z,6.71
2022-11-22T22:17:52.269Z,6.68
2022-11-22T22:21:01.967Z,6.72
2022-11-22T22:24:03.999Z,6.67
2022-11-22T22:27:05.625Z,6.75
2022-11-22T22:30:09.876Z,6.74
2022-11-22T22:33:11.666Z,6.82
2022-11-22T22:36:14.076Z,6.84
2022-11-22T22:39:15.835Z,6.86
2022-11-22T22:42:17.480Z,6.84
2022-11-22T22:45:20.471Z,6.76
2022-11-22T22:48:22.090Z,6.75
2022-11-22T22:51:31.825Z,6.82
2022-11-22T22:54:35.795Z,6.86
2022-11-22T22:57:37.477Z,6.90
2022-11-22T23:00:40.479Z,6.92
2022-11-22T23:03:42.213Z,7.00
2022-11-22T23:06:43.807Z,7.04
2022-11-22T23:09:45.593Z,7.06
2022-11-22T23:12:47.159Z,7.10
2022-11-22T23:15:58.442Z,7.16
2022-11-22T23:19:00.427Z,7.15
2022-11-22T23:22:02.106Z,7.13
2022-11-22T23:25:04.568Z,7.16
2022-11-22T23:28:06.199Z,7.18
2022-11-22T23:31:11.183Z,7.19
2022-11-22T23:34:12.949Z,7.17
2022-11-22T23:37:14.662Z,7.18
2022-11-22T23:40:16.539Z,7.19
2022-11-22T23:43:18.199Z,7.19
2022-11-22T23:46:22.075Z,7.23
2022-11-22T23:49:23.790Z,7.24
2022-11-22T23:52:25.389Z,7.29
2022-11-22T23:55:27.008Z,7.31
2022-11-22T23:58:29.660Z,7.29
